KLWS

Lewiston-Nez Perce County Airport

Lewiston, Idaho, USA
METAR KLWS 230256Z 11016G24KT 10SM SCT110 25/12 A2978 RMK AO2 LTG DSNT SE AND S SLP075 T02500117 53004
Observed Flight Rules
May-23 @ 02:56 UTC (16 minutes ago) Visual Flight Rules
Wind Visibility Clouds
110° at 16 knots
 Gusting to 24 knots
10 miles
  • Scattered at 11,000' AGL
Temperatures Readings
Current 25°C / 77°F
Dewpoint 12°C / 54°F
Humidity 44%
Altimeter 29.78" Hg
Pressure 1007.5 hPa
Elevation 438
METAR KLWS 230256Z 11016G24KT 10SM SCT110 25/12 A2978 RMK AO2 LTG DSNT SE AND S SLP075 T02500117 53004
Observed Flight Rules
May-23 @ 02:56 UTC
(16 minutes ago)
VFR
Wind Visibility
110° at 16 knots
 Gusting to 24 knots
10 miles
Clouds
  • Scattered at 11,000' AGL
Temperature Dewpoint
25°C / 77°F 12°C / 54°F
Humidity Altimeter Pressure
44% 29.78" Hg 1007.5 hPa